createdAt,value
2019-05-16T00:03:39.442Z,95335.64
2019-05-16T00:08:41.562Z,95325.89
2019-05-16T00:13:42.938Z,95304.13
2019-05-16T00:18:44.375Z,95309.97
2019-05-16T00:23:45.738Z,95307.55
2019-05-16T00:28:48.505Z,95306.31
2019-05-16T00:33:48.813Z,95284.95
2019-05-16T00:38:49.845Z,95287.38
2019-05-16T00:43:51.223Z,95285.38
2019-05-16T00:48:52.586Z,95272.45
2019-05-16T00:53:53.946Z,95266.83
2019-05-16T00:58:55.305Z,95266.52
2019-05-16T01:03:58.566Z,95258.42
2019-05-16T01:08:58.073Z,95253.34
2019-05-16T01:13:59.448Z,95247.66
2019-05-16T01:19:00.776Z,95248.66
2019-05-16T01:24:02.143Z,95239.47
2019-05-16T01:29:03.554Z,95237.83
2019-05-16T01:34:07.652Z,95227.95
2019-05-16T01:39:07.974Z,95225.90
2019-05-16T01:44:08.496Z,95213.00
2019-05-16T01:49:09.874Z,95208.59
2019-05-16T01:54:11.232Z,95202.34
2019-05-16T01:59:13.033Z,95204.28
2019-05-16T02:04:14.455Z,95201.00
2019-05-16T02:09:15.775Z,95186.36
2019-05-16T02:14:17.686Z,95183.44
2019-05-16T02:19:18.810Z,95181.40
2019-05-16T02:24:19.776Z,95176.95
2019-05-16T02:29:21.158Z,95171.01
2019-05-16T02:34:23.258Z,95169.81
2019-05-16T02:39:30.497Z,95159.63
2019-05-16T02:44:32.206Z,95150.52
2019-05-16T02:49:34.184Z,95151.23
2019-05-16T02:54:35.202Z,95136.73
2019-05-16T02:59:36.597Z,95127.83
2019-05-16T03:04:43.214Z,95124.34
2019-05-16T03:09:41.068Z,95120.52
2019-05-16T03:14:41.978Z,95124.36
2019-05-16T03:19:45.020Z,95111.78
2019-05-16T03:24:46.428Z,95107.07
2019-05-16T03:29:50.462Z,95107.11
2019-05-16T03:34:54.122Z,95093.09
2019-05-16T03:39:51.491Z,95097.14
2019-05-16T03:44:52.055Z,95081.38
2019-05-16T03:49:54.205Z,95072.16
2019-05-16T03:54:55.576Z,95073.77
2019-05-16T03:59:57.001Z,95076.37
2019-05-16T04:05:01.377Z,95073.50
2019-05-16T04:10:02.276Z,95069.41
2019-05-16T04:15:01.970Z,95065.06
2019-05-16T04:20:02.638Z,95071.50
2019-05-16T04:25:04.758Z,95069.57
2019-05-16T04:30:06.198Z,95061.73
2019-05-16T04:35:10.944Z,95070.58
2019-05-16T04:40:11.867Z,95071.82
2019-05-16T04:45:11.861Z,95072.39
2019-05-16T04:50:12.257Z,95078.52
2019-05-16T04:55:13.176Z,95078.34
2019-05-16T05:00:14.568Z,95074.23
2019-05-16T05:05:16.658Z,95073.15
2019-05-16T05:10:20.631Z,95074.12
2019-05-16T05:15:21.225Z,95070.31
2019-05-16T05:20:21.194Z,95071.44
2019-05-16T05:25:22.340Z,95073.69
2019-05-16T05:30:23.699Z,95071.16
2019-05-16T05:35:25.006Z,95073.66
2019-05-16T05:40:27.076Z,95071.52
2019-05-16T05:45:30.507Z,95076.05
2019-05-16T05:50:30.717Z,95072.58
2019-05-16T05:55:31.979Z,95076.26
2019-05-16T06:00:34.417Z,95067.14
2019-05-16T06:05:36.519Z,95072.98
2019-05-16T06:10:37.911Z,95078.83
2019-05-16T06:15:40.010Z,95079.55
2019-05-16T06:20:40.684Z,95077.70
2019-05-16T06:25:42.083Z,95075.66
2019-05-16T06:30:43.480Z,95075.74
2019-05-16T06:35:44.887Z,95065.11
2019-05-16T06:40:49.034Z,95052.59
2019-05-16T06:45:47.688Z,95059.63
2019-05-16T06:50:51.419Z,95055.25
2019-05-16T06:55:51.226Z,95059.84
2019-05-16T07:00:52.915Z,95063.42
2019-05-16T07:05:53.935Z,95055.81
2019-05-16T07:10:55.245Z,95047.80
2019-05-16T07:15:56.553Z,95044.55
2019-05-16T07:21:00.034Z,95046.59
2019-05-16T07:26:00.775Z,95037.23
2019-05-16T07:31:14.194Z,95031.23
2019-05-16T07:36:02.890Z,95028.25
2019-05-16T07:41:04.270Z,95028.48
2019-05-16T07:46:06.353Z,95023.48
2019-05-16T07:51:10.114Z,95012.89
2019-05-16T07:56:10.560Z,95008.97
2019-05-16T08:01:12.529Z,95005.30
2019-05-16T08:06:11.862Z,94996.91
2019-05-16T08:11:13.259Z,94992.03
2019-05-16T08:16:14.709Z,94986.69
2019-05-16T08:26:17.487Z,94992.38
2019-05-16T08:31:21.400Z,94990.27
2019-05-16T08:36:21.181Z,94979.73
2019-05-16T08:41:22.265Z,94981.91
2019-05-16T08:46:23.133Z,94981.73
2019-05-16T08:51:25.250Z,94976.00
2019-05-16T08:56:26.546Z,94976.94
2019-05-16T09:01:27.929Z,94975.98
2019-05-16T09:06:32.057Z,94968.63
2019-05-16T09:10:26.225Z,94987.66
2019-05-16T09:11:41.433Z,94959.16
2019-05-16T09:16:32.896Z,94959.34
2019-05-16T09:21:34.303Z,94957.81
2019-05-16T09:26:38.102Z,94936.54
2019-05-16T09:31:38.541Z,94933.77
2019-05-16T09:36:38.834Z,94929.66
2019-05-16T09:41:55.011Z,94929.31
2019-05-16T09:46:43.060Z,94926.53
2019-05-16T09:51:46.523Z,94924.91
2019-05-16T09:56:46.431Z,94925.59
2019-05-16T10:01:47.758Z,94912.20
2019-05-16T10:06:48.607Z,94915.91
2019-05-16T10:12:05.503Z,94908.80
2019-05-16T10:16:51.685Z,94905.09
2019-05-16T10:21:53.809Z,94897.06
2019-05-16T10:26:57.042Z,94899.77
2019-05-16T10:31:56.975Z,94903.02
2019-05-16T10:36:57.974Z,94896.87
2019-05-16T10:41:59.344Z,94898.34
2019-05-16T10:47:01.427Z,94890.28
2019-05-16T10:52:02.868Z,94883.52
2019-05-16T10:57:04.273Z,94879.67
2019-05-16T11:02:10.837Z,94884.95
2019-05-16T11:07:12.298Z,94876.77
2019-05-16T11:12:13.684Z,94869.23
2019-05-16T11:17:18.818Z,94869.23
2019-05-16T11:22:16.397Z,94864.13
2019-05-16T11:27:18.487Z,94858.05
2019-05-16T11:32:19.814Z,94854.50
2019-05-16T11:37:21.219Z,94840.59
2019-05-16T11:42:22.583Z,94849.51
2019-05-16T11:47:23.993Z,94843.25
2019-05-16T11:52:25.337Z,94833.66
2019-05-16T11:57:26.788Z,94834.09
2019-05-16T12:02:28.181Z,94822.08
2019-05-16T12:07:33.540Z,94823.81
2019-05-16T12:12:30.896Z,94828.84
2019-05-16T12:17:32.343Z,94821.35
2019-05-16T12:22:33.722Z,94821.02
2019-05-16T12:27:41.711Z,94821.03
2019-05-16T12:32:36.781Z,94817.63
2019-05-16T12:37:38.555Z,94820.11
2019-05-16T12:42:39.895Z,94824.04
2019-05-16T12:47:41.260Z,94832.40
2019-05-16T12:52:42.553Z,94818.34
2019-05-16T12:57:43.908Z,94823.18
2019-05-16T13:02:47.293Z,94812.47
2019-05-16T13:07:47.654Z,94800.11
2019-05-16T13:12:48.054Z,94805.06
2019-05-16T13:17:49.400Z,94807.85
2019-05-16T13:22:50.730Z,94806.99
2019-05-16T13:27:52.058Z,94802.81
2019-05-16T13:32:53.468Z,94803.39
2019-05-16T13:37:54.836Z,94792.48
2019-05-16T13:42:57.313Z,94788.07
2019-05-16T14:49:03.709Z,94757.55
2019-05-16T14:54:07.548Z,94756.89
2019-05-16T14:59:08.245Z,94757.95
2019-05-16T15:04:08.096Z,94760.38
2019-05-16T15:09:09.424Z,94755.86
2019-05-16T15:14:10.808Z,94760.25
2019-05-16T15:19:12.184Z,94756.09
2019-05-16T15:24:13.485Z,94766.18
2019-05-16T15:29:16.533Z,94763.24
2019-05-16T15:34:17.820Z,94754.42
2019-05-16T15:39:19.177Z,94768.41
2019-05-16T15:44:20.568Z,94768.02
2019-05-16T15:49:21.860Z,94761.11
2019-05-16T15:54:23.993Z,94759.77
2019-05-16T15:59:27.240Z,94753.97
2019-05-16T16:41:51.664Z,94735.39
2019-05-16T17:11:01.958Z,94756.13
2019-05-16T17:16:03.228Z,94754.27
2019-05-16T17:21:04.508Z,94755.64
2019-05-16T17:26:07.280Z,94751.74
2019-05-16T17:31:07.422Z,94751.18
2019-05-16T17:36:09.424Z,94752.88
2019-05-16T17:41:10.025Z,94754.80
2019-05-16T17:46:11.365Z,94757.47
2019-05-16T17:51:13.338Z,94756.03
2019-05-16T17:56:17.137Z,94751.41
2019-05-16T18:01:17.206Z,94754.09
2019-05-16T18:06:18.206Z,94758.41
2019-05-16T18:11:19.583Z,94755.86
2019-05-16T18:16:21.018Z,94760.73
2019-05-16T18:21:22.402Z,94761.91
2019-05-16T18:26:23.720Z,94759.16
2019-05-16T18:31:26.641Z,94759.28
2019-05-16T18:36:27.793Z,94769.64
2019-05-16T18:41:29.164Z,94767.08
2019-05-16T18:46:30.522Z,94762.84
2019-05-16T18:51:32.186Z,94758.86
2019-05-16T18:56:36.173Z,94762.84
2019-05-16T19:01:37.563Z,94762.31
2019-05-16T19:06:37.593Z,94759.28
2019-05-16T19:11:39.749Z,94756.87
2019-05-16T19:16:41.151Z,94757.98
2019-05-16T19:21:42.454Z,94760.58
2019-05-16T19:26:43.805Z,94750.80
2019-05-16T19:31:46.990Z,94752.86
2019-05-16T19:36:47.001Z,94754.41
2019-05-16T19:41:48.047Z,94745.59
2019-05-16T19:46:49.629Z,94743.13
2019-05-16T19:52:04.118Z,94745.77
2019-05-16T19:57:09.917Z,94752.23
2019-05-16T20:02:11.827Z,94749.13
2019-05-16T20:07:16.762Z,94756.35
2019-05-16T20:12:19.070Z,94751.91
2019-05-16T20:17:21.273Z,94749.49
2019-05-16T20:22:26.122Z,94752.17
2019-05-16T20:27:27.460Z,94744.88
2019-05-16T20:32:28.248Z,94739.02
2019-05-16T20:37:29.521Z,94732.38
2019-05-16T20:42:30.823Z,94720.08
2019-05-16T20:47:32.241Z,94720.84
2019-05-16T20:52:33.553Z,94720.14
2019-05-16T20:57:37.301Z,94712.11
2019-05-16T21:02:37.879Z,94709.43
2019-05-16T21:07:37.792Z,94711.28
2019-05-16T21:12:40.371Z,94706.08
2019-05-16T21:17:40.474Z,94708.50
2019-05-16T21:22:41.781Z,94698.93
2019-05-16T21:27:46.341Z,94697.80
2019-05-16T21:32:47.130Z,94699.40
2019-05-16T21:37:46.836Z,94693.27
2019-05-16T21:42:48.057Z,94696.70
2019-05-16T21:47:50.137Z,94690.33
2019-05-16T21:52:52.210Z,94683.46
2019-05-16T21:57:54.239Z,94676.22
2019-05-16T22:02:57.315Z,94673.08
2019-05-16T22:07:56.960Z,94670.64
2019-05-16T22:12:58.334Z,94665.06
2019-05-16T22:17:59.736Z,94667.15
2019-05-16T22:23:01.154Z,94661.02
2019-05-16T22:28:02.971Z,94657.60
2019-05-16T22:33:08.953Z,94652.34
2019-05-16T22:38:06.559Z,94652.39
2019-05-16T22:43:10.181Z,94651.08
2019-05-16T22:48:08.676Z,94639.82
2019-05-16T22:53:10.021Z,94633.72
2019-05-16T22:58:12.152Z,94623.28
2019-05-16T23:03:13.566Z,94617.17
2019-05-16T23:08:16.433Z,94617.05
2019-05-16T23:13:23.832Z,94621.43
2019-05-16T23:18:26.695Z,94608.77
2019-05-16T23:23:26.733Z,94612.14
2019-05-16T23:28:28.050Z,94603.30
2019-05-16T23:33:29.360Z,94592.11
2019-05-16T23:38:30.712Z,94587.40
2019-05-16T23:43:32.088Z,94595.01
2019-05-16T23:48:33.390Z,94585.97
2019-05-16T23:53:36.941Z,94583.36
2019-05-16T23:58:36.980Z,94573.14
